Aeroporto :
LOGIN :

Iscrizione | Disclaimer

   EN    FR    IT 

 










Sommario :    VFR   VFR Marginale   IFR   IFR Intensivo   IFR Molto Intensivo
Visibilità : 
Base nubi : 
>= 8 km
>= 3000ft
5 / 8 km
1000 / 3000 ft
1500m / 5 km
500 / 1000 ft
800 / 1500m
200 / 500 ft
< 800m
< 200 ft
Simboli :   Temporali  Nebbia  Neve Forte  Precipitazioni Forti  Vento > 20 kt
SIGMETs :   Varie  Temporali  Ghiacco  Turbolenza  Onda orograficha  Ceneri Vulcaniche







- Altitudine del aeroporto : 124 ft
- Codice IATA : RNS
- Carte del aeroporto


LFRN - Rennes

ULTIMO METAR :
  • 260600Z AUTO VRB02KT 9999 NSC 08/07 Q1010

METARs OBSOLETI :
  • 260530Z AUTO 16002KT 9999 BKN022 BKN030 BKN056 07/07 Q1010
  • 260500Z AUTO VRB03KT 9999 FEW025/// BKN060/// BKN074/// ///TCU 07/07 Q1009 TEMPO 3000 BR BKN005
  • 260430Z AUTO 14002KT 9999 ///CB 07/07 Q1009 TEMPO 3000 BR BKN005 BECMG 27010KT
  • 260400Z AUTO 15002KT 9999 ///TCU 07/07 Q1009 TEMPO 3000 BR BKN005
  • 260330Z AUTO 16002KT 9999 SCT025 07/07 Q1009 TEMPO 3000 BR BKN005

TAF TAF LFRN
Valido dal 26 a 06 ore il 27 a 06 ore UTC


260500Z 2606/2706 16005KT 9999 SCT030
PROB30
TEMPO 2606/2608 3000 BR BKN005
BECMG 2607/2609 26010KT
TEMPO 2611/2616 27015G25KT 4000 SHRA BKN020TCU
BECMG 2618/2620 20010KT
TEMPO 2620/2624 4000 RA BKN008
BECMG 2622/2624 26015G25KT
ATIS : +33 2 99 67 72 50
Nessun NOTAM noto per questo aeroporto.



MetMap, La meteo Aeronautica in un colpo d'occhio ! - Copyright ORBIFLY Dicembre 2007 - Disclaimer

ORBIFLY MET'MAP TEAM :

Programmazione e sviluppo : Alexandra Zaïnal
Concezione e sviluppo : Baudouin d'Aumeries
Co-Programmazione e sviluppo : Marc-Olivier Méhu
Supporto tecnico e logistico : Manuel Goepfert
Aiuto per la traduzione : Arnaldo La Scala

Contatto : metmap@orbifly.com




FONTI E CREDITI :

   NOAA